Latest Weather Observations for Nambour

IDQ60901

Issued at 12:11 pm EST Tuesday 23 December 2014 (issued every 10 minutes, with the page automatically refreshed every 10 minutes)

About weather observations | Map of Brisbane area stations | Latest observations for Brisbane area | Other Formats
Station Details ID: 040988 Name: NAMBOUR DAFF - HILLSIDE Lat: -26.64 Lon: 152.94 Height: 53.24 m
Data from the previous 72 hours. | See also: Recent months at Nambour
Date/Time
EST
Tmp

°C
App
Tmp
°C
Dew
Point
°C
Rel
Hum
%
Delta-T

°C
Wind Press
QNH
hPa
Press
MSL
hPa
Rain
since
9 am
mm
Dir
 
Spd
km/h
Gust
km/h
Spd
kts
Gust
kts
23/12:00pm 27.2 27.6 16.2 51 6.8 E 9 20 5 11 1015.6 1015.3 0.0
23/11:30am 27.5 27.8 16.1 49 7.0 ENE 9 19 5 10 1015.8 1015.5 0.0
23/11:00am 26.9 27.9 16.8 54 6.3 SE 7 19 4 10 1015.9 1015.6 0.0
23/10:30am 26.2 27.2 16.4 54 6.0 SE 6 13 3 7 1016.3 1016.0 0.0
23/10:00am 25.9 27.0 16.5 56 5.8 SE 6 13 3 7 1016.3 1016.0 0.0
23/09:30am 26.3 27.3 16.3 54 6.2 SE 6 11 3 6 1016.6 1016.3 0.0
23/09:00am 25.6 26.5 16.2 56 5.8 SE 6 13 3 7 1017.0 1016.7 0.0
23/08:30am 25.4 26.4 16.8 59 5.3 E 7 13 4 7 1016.9 1016.6 0.0
23/08:00am 25.1 26.7 17.8 64 4.6 E 6 11 3 6 1016.8 1016.5 0.0
23/07:30am 24.1 25.2 16.6 63 4.6 SE 6 13 3 7 1016.7 1016.4 0.0
23/07:00am 23.5 25.2 16.3 64 4.4 SW 2 4 1 2 1016.7 1016.4 0.0
23/06:30am 20.9 23.2 17.7 82 2.0 SW 2 6 1 3 1016.4 1016.1 0.0
23/06:00am 18.3 20.7 17.1 93 0.7 CALM 0 0 0 0 1016.0 1015.7 0.0
23/05:30am 16.7 18.6 15.7 94 0.6 CALM 0 0 0 0 1015.9 1015.6 0.0
23/05:00am 16.6 18.5 15.8 95 0.5 CALM 0 0 0 0 1015.8 1015.5 0.0
23/04:30am 16.5 18.3 15.4 93 0.6 CALM 0 0 0 0 1015.7 1015.4 0.0
23/04:00am 16.9 18.9 15.9 94 0.6 CALM 0 0 0 0 1015.5 1015.2 0.0
23/03:30am 16.7 18.5 15.6 93 0.6 CALM 0 0 0 0 1015.4 1015.1 0.0
23/03:00am 16.8 18.6 15.5 92 0.8 CALM 0 0 0 0 1015.5 1015.2 0.0
23/02:30am 17.1 19.0 15.8 92 0.8 CALM 0 0 0 0 1015.5 1015.2 0.0
23/02:00am 17.2 19.1 15.7 91 0.9 CALM 0 0 0 0 1015.6 1015.3 0.0
23/01:30am 17.3 19.2 15.8 91 0.9 CALM 0 0 0 0 1015.8 1015.5 0.0
23/01:00am 17.5 19.6 16.2 92 0.8 CALM 0 0 0 0 1016.2 1015.9 0.0
23/12:30am 17.8 19.8 16.1 90 1.0 CALM 0 0 0 0 1016.3 1016.0 0.0
23/12:00am 18.2 20.4 16.4 89 1.1 CALM 0 0 0 0 1016.8 1016.5 0.0
 
Date/Time
EST
Tmp

°C
App
Tmp
°C
Dew
Point
°C
Rel
Hum
%
Delta-T

°C
Wind Press
QNH
hPa
Press
MSL
hPa
Rain
since
9 am
mm
Dir
 
Spd
km/h
Gust
km/h
Spd
kts
Gust
kts
22/11:30pm 18.1 20.1 16.1 88 1.2 CALM 0 0 0 0 1017.1 1016.8 0.0
22/11:00pm 18.3 20.3 16.1 87 1.3 CALM 0 0 0 0 1017.2 1016.9 0.0
22/10:30pm 18.6 20.5 15.7 83 1.7 CALM 0 0 0 0 1017.5 1017.2 0.0
22/10:00pm 19.3 21.2 15.8 80 2.1 CALM 0 0 0 0 1017.6 1017.3 0.0
22/09:30pm 19.8 21.8 16.1 79 2.2 CALM 0 0 0 0 1017.6 1017.3 0.0
22/09:00pm 19.6 21.5 15.7 78 2.3 CALM 0 0 0 0 1017.6 1017.3 0.0
22/08:30pm 19.9 21.7 15.5 76 2.6 CALM 0 0 0 0 1017.4 1017.1 0.0
22/08:00pm 20.2 22.0 15.4 74 2.8 CALM 0 0 0 0 1017.3 1017.0 0.0
22/07:30pm 21.6 23.3 15.2 67 3.8 CALM 0 2 0 1 1017.2 1016.9 0.0
22/07:00pm 22.2 23.5 15.1 64 4.2 SE 2 4 1 2 1016.9 1016.6 0.0
22/06:30pm 22.9 23.3 14.7 60 4.9 E 6 11 3 6 1016.5 1016.2 0.0
22/06:00pm 23.6 23.6 14.3 56 5.5 ESE 7 13 4 7 1016.2 1015.9 0.0
22/05:30pm 24.5 24.2 14.3 53 6.0 ESE 9 15 5 8 1016.0 1015.7 0.0
22/05:00pm 25.1 24.4 13.3 48 6.9 ESE 9 17 5 9 1015.7 1015.4 0.0
22/04:30pm 25.7 24.6 13.2 46 7.3 E 11 19 6 10 1015.5 1015.2 0.0
22/04:00pm 25.7 24.2 13.2 46 7.3 E 13 24 7 13 1015.3 1015.0 0.0
22/03:30pm 25.8 24.4 14.6 50 6.7 ESE 15 24 8 13 1015.5 1015.2 0.0
22/03:00pm 25.9 25.0 15.9 54 6.1 E 15 24 8 13 1015.9 1015.6 0.0
22/02:30pm 26.6 26.1 15.9 51 6.6 E 13 24 7 13 1015.9 1015.6 0.0
22/02:00pm 25.9 25.1 15.0 51 6.6 E 13 20 7 11 1016.2 1015.9 0.0
22/01:30pm 25.9 24.0 13.1 45 7.5 E 15 30 8 16 1016.4 1016.1 0.0
22/01:00pm 26.7 25.5 14.1 46 7.5 ESE 13 22 7 12 1016.9 1016.6 0.0
22/12:30pm 26.6 25.9 14.4 47 7.3 ESE 11 26 6 14 1017.3 1017.0 0.0
22/12:00pm 27.4 27.5 16.4 51 6.8 ESE 11 22 6 12 1017.6 1017.3 0.0
22/11:30am 26.6 26.5 15.9 51 6.6 E 11 19 6 10 1017.9 1017.6 0.0
22/11:00am 26.7 25.8 13.8 45 7.6 ESE 11 20 6 11 1018.0 1017.7 0.0
22/10:30am 26.5 26.9 15.2 49 6.9 ESE 7 15 4 8 1018.3 1018.1 0.0
22/10:00am 25.1 23.9 13.9 49 6.6 ESE 13 22 7 12 1018.2 1018.0 0.0
22/09:30am 25.9 25.2 15.3 52 6.4 ESE 13 28 7 15 1018.2 1018.0 0.0
22/09:00am 25.6 24.8 15.0 52 6.4 ESE 13 22 7 12 1018.1 1017.9 0.2
22/08:30am 24.8 24.1 14.3 52 6.2 ESE 11 19 6 10 1018.0 1017.7 0.2
22/08:00am 25.0 24.1 14.8 53 6.1 ESE 13 22 7 12 1017.8 1017.5 0.2
22/07:30am 23.5 24.3 15.8 62 4.7 SSE 6 11 3 6 1017.5 1017.2 0.2
22/07:00am 23.8 24.7 16.1 62 4.7 SE 6 13 3 7 1017.3 1017.0 0.2
22/06:30am 23.3 25.5 16.4 65 4.2 CALM 0 6 0 3 1017.2 1016.9 0.2
22/06:00am 21.3 23.7 16.9 76 2.7 CALM 0 0 0 0 1017.0 1016.7 0.2
22/05:30am 19.8 22.0 16.4 81 2.0 CALM 0 2 0 1 1016.7 1016.4 0.2
22/05:00am 19.7 21.8 16.2 80 2.1 CALM 0 0 0 0 1016.4 1016.1 0.2
22/04:30am 20.1 22.1 16.1 78 2.4 CALM 0 0 0 0 1016.0 1015.7 0.2
22/04:00am 20.8 23.0 16.6 77 2.5 CALM 0 0 0 0 1015.7 1015.4 0.2
22/03:30am 21.2 23.5 16.8 76 2.7 CALM 0 2 0 1 1015.8 1015.5 0.2
22/03:00am 21.4 23.4 17.0 76 2.7 WSW 2 4 1 2 1016.0 1015.7 0.2
22/02:30am 21.5 23.8 16.7 74 2.9 CALM 0 0 0 0 1016.0 1015.7 0.2
22/02:00am 21.7 24.1 16.9 74 2.9 CALM 0 0 0 0 1016.1 1015.8 0.2
22/01:30am 21.8 23.7 16.7 73 3.1 SW 2 4 1 2 1016.6 1016.3 0.2
22/01:00am 22.3 24.3 16.1 68 3.7 CALM 0 0 0 0 1016.6 1016.3 0.2
22/12:30am 22.4 24.3 16.7 70 3.5 SSE 2 4 1 2 1016.8 1016.5 0.2
22/12:00am 22.5 24.4 16.8 70 3.5 SE 2 6 1 3 1017.2 1016.9 0.2
 
Date/Time
EST
Tmp

°C
App
Tmp
°C
Dew
Point
°C
Rel
Hum
%
Delta-T

°C
Wind Press
QNH
hPa
Press
MSL
hPa
Rain
since
9 am
mm
Dir
 
Spd
km/h
Gust
km/h
Spd
kts
Gust
kts
21/11:30pm 22.5 24.9 17.0 71 3.4 CALM 0 6 0 3 1017.9 1017.6 0.2
21/11:00pm 22.9 24.5 16.9 69 3.7 SE 4 7 2 4 1018.3 1018.1 0.2
21/10:30pm 22.9 24.6 17.1 70 3.6 ESE 4 9 2 5 1018.3 1018.1 0.2
21/10:00pm 22.5 25.0 17.2 72 3.3 CALM 0 4 0 2 1018.3 1018.1 0.2
21/09:30pm 22.9 25.3 17.1 70 3.6 CALM 0 6 0 3 1018.4 1018.2 0.2
21/09:00pm 23.0 24.9 16.8 68 3.8 SE 2 6 1 3 1018.0 1017.7 0.2
21/08:30pm 23.2 24.7 16.7 67 4.0 ESE 4 9 2 5 1017.9 1017.6 0.2
21/08:00pm 23.3 24.9 16.8 67 4.0 E 4 9 2 5 1017.7 1017.4 0.2
21/07:30pm 23.5 24.8 17.0 67 4.0 ESE 6 13 3 7 1017.5 1017.2 0.2
21/07:00pm 23.6 24.5 16.6 65 4.3 E 7 13 4 7 1017.0 1016.7 0.2
21/06:30pm 23.8 25.1 17.1 66 4.1 E 6 9 3 5 1016.8 1016.5 0.2
21/06:00pm 24.0 24.6 16.8 64 4.4 E 9 15 5 8 1016.4 1016.1 0.2
21/05:30pm 24.3 24.1 16.6 62 4.7 E 13 19 7 10 1015.9 1015.6 0.2
21/05:00pm 24.8 24.6 16.8 61 4.9 E 13 17 7 9 1015.7 1015.4 0.2
21/04:30pm 25.1 25.5 17.3 62 4.9 E 11 20 6 11 1015.9 1015.6 0.2
21/04:00pm 25.7 25.5 16.8 58 5.5 E 13 20 7 11 1015.5 1015.2 0.2
21/03:30pm 26.4 26.2 16.6 55 6.1 E 13 19 7 10 1015.8 1015.5 0.2
21/03:00pm 26.5 25.7 16.1 52 6.4 E 15 20 8 11 1015.9 1015.6 0.2
21/02:30pm 26.7 26.3 16.3 53 6.4 E 13 24 7 13 1015.9 1015.6 0.2
21/02:00pm 26.3 26.0 15.4 51 6.6 E 11 17 6 9 1016.3 1016.0 0.2
21/01:30pm 26.7 27.1 16.3 53 6.4 E 9 15 5 8 1016.6 1016.3 0.2
21/01:00pm 26.3 26.6 16.0 53 6.3 E 9 15 5 8 1016.9 1016.6 0.2
21/12:30pm 26.4 26.7 16.1 53 6.3 E 9 15 5 8 1017.1 1016.8 0.2
21/12:00pm 26.9 27.6 16.2 52 6.6 E 7 15 4 8 1017.4 1017.1 0.2
21/11:30am 26.9 27.2 15.9 51 6.8 ENE 9 17 5 9 1017.7 1017.4 0.2
21/11:00am 27.2 28.2 17.7 56 6.0 ESE 9 19 5 10 1017.9 1017.6 0.0
21/10:30am 26.9 27.6 16.2 52 6.6 E 7 15 4 8 1018.2 1018.0 0.0
21/10:00am 26.0 27.1 15.7 53 6.3 ENE 4 9 2 5 1018.3 1018.1 0.0
21/09:30am 25.6 25.9 15.9 55 5.9 ENE 9 19 5 10 1018.4 1018.2 0.0
21/09:00am 25.6 25.7 16.5 57 5.6 E 11 19 6 10 1018.3 1018.1 0.0
21/08:30am 25.1 25.8 17.1 61 5.0 E 9 17 5 9 1018.2 1018.0 0.0
21/08:00am 25.4 26.2 17.3 61 5.0 E 9 13 5 7 1018.1 1017.9 0.0
21/07:30am 24.2 25.3 17.2 65 4.3 ESE 7 13 4 7 1017.9 1017.6 0.0
21/07:00am 24.7 26.7 17.9 66 4.3 ESE 4 6 2 3 1017.6 1017.3 0.0
21/06:30am 23.5 26.4 18.2 72 3.3 CALM 0 6 0 3 1017.5 1017.2 0.0
21/06:00am 21.5 24.8 19.1 86 1.5 CALM 0 0 0 0 1017.3 1017.0 0.0
21/05:30am 20.3 23.2 18.1 87 1.4 CALM 0 0 0 0 1017.1 1016.8 0.0
21/05:00am 20.0 22.6 17.4 85 1.6 CALM 0 0 0 0 1016.7 1016.4 0.0
21/04:30am 20.2 22.7 17.2 83 1.8 CALM 0 0 0 0 1016.2 1015.9 0.0
21/04:00am 20.3 22.8 17.3 83 1.8 CALM 0 0 0 0 1015.9 1015.6 0.0
21/03:30am 20.7 23.2 17.3 81 2.1 CALM 0 0 0 0 1015.9 1015.6 0.0
21/03:00am 20.9 23.8 18.1 84 1.7 CALM 0 0 0 0 1015.8 1015.5 0.0
21/02:30am 21.0 23.5 17.2 79 2.3 CALM 0 0 0 0 1015.9 1015.6 0.0
21/02:00am 21.4 23.9 17.2 77 2.6 CALM 0 0 0 0 1016.0 1015.7 0.0
21/01:30am 21.6 24.2 17.6 78 2.5 CALM 0 0 0 0 1016.2 1015.9 0.0
21/01:00am 21.9 24.4 17.3 75 2.8 CALM 0 0 0 0 1016.3 1016.0 0.0
21/12:30am 22.3 24.9 17.4 74 3.0 CALM 0 0 0 0 1016.5 1016.2 0.0
21/12:00am 22.6 25.3 17.7 74 3.0 CALM 0 4 0 2 1016.8 1016.5 0.0
 
Date/Time
EST
Tmp

°C
App
Tmp
°C
Dew
Point
°C
Rel
Hum
%
Delta-T

°C
Wind Press
QNH
hPa
Press
MSL
hPa
Rain
since
9 am
mm
Dir
 
Spd
km/h
Gust
km/h
Spd
kts
Gust
kts
20/11:30pm 23.0 25.3 17.7 72 3.3 ESE 2 4 1 2 1017.1 1016.8 0.0
20/11:00pm 23.3 25.4 18.0 72 3.3 SE 4 7 2 4 1017.2 1016.9 0.0
20/10:30pm 23.4 25.1 18.1 72 3.3 ESE 6 9 3 5 1017.3 1017.0 0.0
20/10:00pm 23.4 25.2 18.3 73 3.2 ESE 6 9 3 5 1017.2 1016.9 0.0
20/09:30pm 23.5 25.4 18.6 74 3.1 ESE 6 7 3 4 1017.1 1016.8 0.0
20/09:00pm 23.5 25.2 18.4 73 3.2 ESE 7 13 4 7 1016.8 1016.5 0.0
20/08:30pm 23.5 25.4 18.6 74 3.1 ESE 6 9 3 5 1016.5 1016.2 0.0
20/08:00pm 23.6 26.3 18.7 74 3.1 SE 2 6 1 3 1016.3 1016.0 0.0
20/07:30pm 23.6 26.0 18.7 74 3.1 ESE 4 9 2 5 1015.9 1015.6 0.0
20/07:00pm 23.8 26.2 18.7 73 3.2 ESE 4 7 2 4 1015.4 1015.1 0.0
20/06:30pm 24.1 25.1 18.7 72 3.4 E 11 17 6 9 1014.8 1014.5 0.0
20/06:00pm 24.3 26.1 18.7 71 3.6 E 7 11 4 6 1014.6 1014.3 0.0
20/05:30pm 24.5 25.6 18.9 71 3.6 E 11 17 6 9 1014.4 1014.1 0.0
20/05:00pm 24.5 26.4 18.9 71 3.6 E 7 11 4 6 1014.0 1013.7 0.0
20/04:30pm 24.6 25.7 18.8 70 3.7 ESE 11 22 6 12 1013.7 1013.4 0.0
20/04:00pm 25.1 26.6 19.0 69 3.9 E 9 13 5 7 1013.6 1013.3 0.0
20/03:30pm 24.9 25.1 18.6 68 4.0 E 15 24 8 13 1013.3 1013.0 0.0
20/03:00pm 25.2 26.4 19.1 69 3.9 ESE 11 19 6 10 1013.6 1013.3 0.0
20/02:30pm 24.8 27.0 19.6 73 3.4 E 7 13 4 7 1014.1 1013.8 0.0
20/02:00pm 25.9 26.8 19.3 67 4.3 ENE 13 20 7 11 1014.2 1013.9 0.0
20/01:30pm 26.0 26.9 19.2 66 4.4 ENE 13 24 7 13 1014.5 1014.2 0.0
20/01:00pm 25.6 27.3 19.3 68 4.1 E 9 17 5 9 1014.6 1014.3 0.0
20/12:30pm 25.9 26.6 18.8 65 4.5 E 13 20 7 11 1014.8 1014.5 0.0

Latest Capital City Observations: Canberra | Sydney | Melbourne | Brisbane | Adelaide | Perth | Hobart | Darwin

Other Formats:

Comma delimited format used in spreadsheet applications
http://www.bom.gov.au/fwo/IDQ60901/IDQ60901.95572.axf

JavaScript Object Notation format (JSON) in row-major order
http://www.bom.gov.au/fwo/IDQ60901/IDQ60901.95572.json